Time;durP1;ratioP1;P1;durP2;ratioP2;P2;SDS_P1;SDS_P2;PMS_P1;PMS_P2;Temp;Humidity;BMP_temperature;BMP_pressure;BME280_temperature;BME280_humidity;BME280_pressure;Samples;Min_cycle;Max_cycle;Signal;HPM_P1;HPM_P2
2023/05/18 00:01:02;;;;;;;;;;;9.30;99.90;;;;;;5131218;28;19976;-63
2023/05/18 00:03:28;;;;;;;;;;;9.30;99.90;;;;;;5131804;28;19931;-64
2023/05/18 00:05:56;;;;;;;;;;;9.40;99.90;;;;;;5132741;27;19923;-64
2023/05/18 00:08:22;;;;;;;;;;;9.40;99.90;;;;;;5133078;27;20401;-63
2023/05/18 00:10:47;;;;;;;;;;;9.40;99.90;;;;;;5131518;28;19975;-64
2023/05/18 00:13:13;;;;;;;;;;;9.30;99.90;;;;;;5132751;28;19924;-63
2023/05/18 00:15:39;;;;;;;;;;;9.40;99.90;;;;;;5132816;28;19928;-69
2023/05/18 00:18:05;;;;;;;;;;;9.30;99.90;;;;;;5132942;28;20423;-65
2023/05/18 00:20:31;;;;;;;;;;;9.30;99.90;;;;;;5132397;27;19924;-64
2023/05/18 00:22:57;;;;;;;;;;;9.30;99.90;;;;;;5132295;27;19931;-64
2023/05/18 00:25:22;;;;;;;;;;;9.30;99.90;;;;;;5132819;28;20280;-63
2023/05/18 00:27:48;;;;;;;;;;;9.30;99.90;;;;;;5132337;28;19970;-64
2023/05/18 00:30:14;;;;;;;;;;;9.30;99.90;;;;;;5131618;28;20380;-63
2023/05/18 00:32:40;;;;;;;;;;;9.30;99.90;;;;;;5131442;28;19923;-64
2023/05/18 00:35:06;;;;;;;;;;;9.30;99.90;;;;;;5132364;28;19927;-63
2023/05/18 00:37:32;;;;;;;;;;;9.20;99.90;;;;;;5132769;27;20264;-64
2023/05/18 00:39:57;;;;;;;;;;;9.20;99.90;;;;;;5132521;27;19923;-64
2023/05/18 00:42:23;;;;;;;;;;;9.20;99.90;;;;;;5136457;27;19924;-64
2023/05/18 00:44:48;;;;;;;;;;;9.20;99.90;;;;;;5135161;27;20018;-63
2023/05/18 00:47:14;;;;;;;;;;;9.20;99.90;;;;;;5136311;27;19931;-64
2023/05/18 00:49:40;;;;;;;;;;;9.20;99.90;;;;;;5136330;27;19924;-63
2023/05/18 00:52:06;;;;;;;;;;;9.20;99.90;;;;;;5136220;27;20288;-64
2023/05/18 00:54:33;;;;;;;;;;;9.20;99.90;;;;;;5135138;27;19974;-64
2023/05/18 00:57:01;;;;;;;;;;;9.20;99.90;;;;;;5134783;27;20368;-64
2023/05/18 00:59:27;;;;;;;;;;;9.20;99.90;;;;;;5136162;27;19923;-66
2023/05/18 01:01:53;;;;;;;;;;;9.20;99.90;;;;;;5135785;27;19946;-64
2023/05/18 01:04:20;;;;;;;;;;;9.20;99.90;;;;;;5117950;27;20385;-64
2023/05/18 01:06:46;;;;;;;;;;;9.20;99.90;;;;;;5135882;27;19934;-71
2023/05/18 01:09:13;;;;;;;;;;;9.20;99.90;;;;;;5136061;27;19923;-64
2023/05/18 01:11:43;;;;;;;;;;;9.20;99.90;;;;;;5135899;27;19923;-63
2023/05/18 01:14:12;;;;;;;;;;;9.20;99.90;;;;;;5134348;27;19919;-63
2023/05/18 01:16:52;;;;;;;;;;;9.30;99.90;;;;;;5135581;27;20280;-65
2023/05/18 01:19:23;;;;;;;;;;;9.20;99.90;;;;;;5135860;27;20332;-63
2023/05/18 01:21:52;;;;;;;;;;;9.20;99.90;;;;;;5135494;27;19923;-69
2023/05/18 01:24:25;;;;;;;;;;;9.20;99.90;;;;;;5134449;27;19930;-65
2023/05/18 01:26:56;;;;;;;;;;;9.20;99.90;;;;;;5134902;27;20284;-64
2023/05/18 01:29:23;;;;;;;;;;;9.10;99.90;;;;;;5135791;27;19923;-63
2023/05/18 01:31:49;;;;;;;;;;;9.20;99.90;;;;;;5135464;27;20330;-69
2023/05/18 01:34:15;;;;;;;;;;;9.10;99.90;;;;;;5135440;27;19938;-63
2023/05/18 01:36:40;;;;;;;;;;;9.20;99.90;;;;;;5135224;27;19923;-63
2023/05/18 01:39:07;;;;;;;;;;;9.20;99.90;;;;;;5133849;27;19967;-63
2023/05/18 01:41:35;;;;;;;;;;;9.20;99.90;;;;;;5135276;27;20273;-63
2023/05/18 01:44:03;;;;;;;;;;;9.20;99.90;;;;;;5135038;27;19923;-64
2023/05/18 01:46:41;;;;;;;;;;;9.20;99.90;;;;;;5134923;27;19984;-64
2023/05/18 01:49:15;;;;;;;;;;;9.20;99.90;;;;;;5134866;27;20037;-63
2023/05/18 01:51:43;;;;;;;;;;;9.20;99.90;;;;;;5133407;27;19924;-63
2023/05/18 01:54:10;;;;;;;;;;;9.20;99.90;;;;;;5133429;27;20040;-63
2023/05/18 01:56:36;;;;;;;;;;;9.20;99.90;;;;;;5135109;27;19927;-63
2023/05/18 01:59:02;;;;;;;;;;;9.20;99.90;;;;;;5133442;27;19974;-64
2023/05/18 02:01:28;;;;;;;;;;;9.20;99.90;;;;;;5134906;27;19982;-64
2023/05/18 02:03:53;;;;;;;;;;;9.20;99.90;;;;;;5133622;27;19923;-69
2023/05/18 02:06:19;;;;;;;;;;;9.20;99.90;;;;;;5134668;27;19930;-63
2023/05/18 02:08:44;;;;;;;;;;;9.20;99.90;;;;;;5134901;27;20399;-63
2023/05/18 02:11:10;;;;;;;;;;;9.20;99.90;;;;;;5134447;27;19927;-65
2023/05/18 02:13:36;;;;;;;;;;;9.20;99.90;;;;;;5133352;27;19930;-64
2023/05/18 02:16:05;;;;;;;;;;;9.20;99.90;;;;;;5134278;27;19968;-64
2023/05/18 02:18:32;;;;;;;;;;;9.20;99.90;;;;;;5133541;27;19973;-64
2023/05/18 02:20:59;;;;;;;;;;;9.20;99.90;;;;;;5133847;27;19924;-70
2023/05/18 02:23:25;;;;;;;;;;;9.20;99.90;;;;;;5116011;27;20460;-63
2023/05/18 02:25:50;;;;;;;;;;;9.20;99.90;;;;;;5133077;27;20013;-64
2023/05/18 02:28:16;;;;;;;;;;;9.20;99.90;;;;;;5133786;27;19974;-64
2023/05/18 02:30:42;;;;;;;;;;;9.20;99.90;;;;;;5168175;27;20337;-63
2023/05/18 02:33:07;;;;;;;;;;;9.20;99.90;;;;;;5132457;27;20292;-63
2023/05/18 02:35:34;;;;;;;;;;;9.20;99.90;;;;;;5133058;27;20282;-63
2023/05/18 02:37:59;;;;;;;;;;;9.20;99.90;;;;;;5134210;27;20319;-70
2023/05/18 02:40:25;;;;;;;;;;;9.20;99.90;;;;;;5132516;27;19934;-63
2023/05/18 02:42:51;;;;;;;;;;;9.20;99.90;;;;;;5133133;27;20353;-63
2023/05/18 02:45:16;;;;;;;;;;;9.10;99.90;;;;;;5133778;27;19923;-63
2023/05/18 02:47:45;;;;;;;;;;;9.10;99.90;;;;;;5134032;27;20032;-63
2023/05/18 02:50:10;;;;;;;;;;;9.10;99.90;;;;;;5132498;27;19930;-63
2023/05/18 02:52:36;;;;;;;;;;;9.10;99.90;;;;;;5133649;27;19923;-64
2023/05/18 02:55:02;;;;;;;;;;;9.10;99.90;;;;;;5133576;27;19931;-69
2023/05/18 02:57:27;;;;;;;;;;;9.10;99.90;;;;;;5133777;27;20402;-63
2023/05/18 02:59:53;;;;;;;;;;;9.10;99.90;;;;;;5133574;27;19927;-63
2023/05/18 03:02:21;;;;;;;;;;;9.10;99.90;;;;;;5133462;27;19923;-62
2023/05/18 03:04:52;;;;;;;;;;;9.10;99.90;;;;;;5132961;27;19946;-62
2023/05/18 03:07:26;;;;;;;;;;;9.10;99.90;;;;;;5133442;27;19923;-62
2023/05/18 03:09:52;;;;;;;;;;;9.10;99.90;;;;;;5133553;27;19929;-66
2023/05/18 03:12:17;;;;;;;;;;;9.00;99.90;;;;;;5132192;27;19924;-63
2023/05/18 03:14:43;;;;;;;;;;;9.00;99.90;;;;;;5133422;27;19971;-64
2023/05/18 03:17:08;;;;;;;;;;;9.00;99.90;;;;;;5132115;27;19969;-64
2023/05/18 03:19:34;;;;;;;;;;;9.00;99.90;;;;;;5133538;27;19975;-64
2023/05/18 03:22:00;;;;;;;;;;;9.00;99.90;;;;;;5133092;27;19923;-63
2023/05/18 03:24:29;;;;;;;;;;;9.00;99.90;;;;;;5131591;27;20500;-63
2023/05/18 03:26:55;;;;;;;;;;;9.00;99.90;;;;;;5133060;27;20337;-63
2023/05/18 03:29:21;;;;;;;;;;;9.00;99.90;;;;;;5132930;27;19930;-64
2023/05/18 03:31:47;;;;;;;;;;;9.00;99.90;;;;;;5133283;27;20037;-65
2023/05/18 03:34:13;;;;;;;;;;;9.00;99.90;;;;;;5114498;27;19988;-64
2023/05/18 03:36:38;;;;;;;;;;;9.00;99.90;;;;;;5132004;27;19923;-63
2023/05/18 03:39:08;;;;;;;;;;;9.00;99.90;;;;;;5132017;27;19924;-64
2023/05/18 03:41:34;;;;;;;;;;;9.00;99.90;;;;;;5132903;27;19923;-63
2023/05/18 03:43:59;;;;;;;;;;;8.90;99.90;;;;;;5132973;27;20022;-68
2023/05/18 03:46:26;;;;;;;;;;;9.00;99.90;;;;;;5132487;28;20444;-63
2023/05/18 03:48:53;;;;;;;;;;;9.00;99.90;;;;;;5133124;27;20018;-64
2023/05/18 03:51:18;;;;;;;;;;;9.00;99.90;;;;;;5114496;28;19931;-64
2023/05/18 03:53:44;;;;;;;;;;;9.00;99.90;;;;;;5114729;28;19923;-68
2023/05/18 03:56:12;;;;;;;;;;;9.00;99.90;;;;;;5131364;28;19946;-70
2023/05/18 03:58:37;;;;;;;;;;;9.00;99.90;;;;;;5132936;27;19927;-64
2023/05/18 04:01:03;;;;;;;;;;;9.10;99.90;;;;;;5132494;27;19984;-64
2023/05/18 04:03:30;;;;;;;;;;;9.10;99.90;;;;;;5131385;28;20005;-64
2023/05/18 04:05:55;;;;;;;;;;;9.10;99.90;;;;;;5131808;28;20374;-63
2023/05/18 04:08:24;;;;;;;;;;;9.10;99.90;;;;;;5132517;28;19970;-66
2023/05/18 04:10:50;;;;;;;;;;;9.00;99.90;;;;;;5133024;27;19939;-64
2023/05/18 04:13:16;;;;;;;;;;;9.10;99.90;;;;;;5132332;27;20342;-64
2023/05/18 04:15:42;;;;;;;;;;;9.00;99.90;;;;;;5135424;27;19923;-64
2023/05/18 04:18:09;;;;;;;;;;;9.00;99.90;;;;;;5136886;27;20269;-63
2023/05/18 04:20:36;;;;;;;;;;;9.00;99.90;;;;;;5136276;27;19933;-63
2023/05/18 04:23:02;;;;;;;;;;;9.00;99.90;;;;;;5135840;27;19963;-62
2023/05/18 04:25:27;;;;;;;;;;;9.00;99.90;;;;;;5136334;27;19979;-63
2023/05/18 04:27:54;;;;;;;;;;;9.00;99.90;;;;;;5117757;27;20304;-63
2023/05/18 04:30:23;;;;;;;;;;;9.00;99.90;;;;;;5136337;27;20455;-64
2023/05/18 04:32:49;;;;;;;;;;;9.00;99.90;;;;;;5136792;27;19923;-65
2023/05/18 04:35:15;;;;;;;;;;;9.10;99.90;;;;;;5136424;27;19924;-66
2023/05/18 04:37:41;;;;;;;;;;;9.10;99.90;;;;;;5136368;27;20014;-63
2023/05/18 04:40:12;;;;;;;;;;;9.10;99.90;;;;;;5136517;27;19923;-68
2023/05/18 04:42:43;;;;;;;;;;;9.10;99.90;;;;;;5135928;27;19927;-63
2023/05/18 04:45:15;;;;;;;;;;;9.10;99.90;;;;;;5136533;27;19923;-63
2023/05/18 04:47:41;;;;;;;;;;;9.10;99.90;;;;;;5135796;27;20022;-67
2023/05/18 04:50:06;;;;;;;;;;;9.20;99.90;;;;;;5136211;27;20034;-63
2023/05/18 04:52:35;;;;;;;;;;;9.20;99.90;;;;;;5135894;27;20010;-65
2023/05/18 04:55:01;;;;;;;;;;;9.20;99.90;;;;;;5134891;27;19930;-67
2023/05/18 04:57:27;;;;;;;;;;;9.20;99.90;;;;;;5134672;27;19971;-63
2023/05/18 04:59:53;;;;;;;;;;;9.20;99.90;;;;;;5134590;27;20011;-64
2023/05/18 05:02:19;;;;;;;;;;;9.10;99.90;;;;;;5135951;27;19923;-69
2023/05/18 05:04:45;;;;;;;;;;;9.20;99.90;;;;;;5134618;27;19930;-64
2023/05/18 05:07:11;;;;;;;;;;;9.20;99.90;;;;;;5135932;27;19931;-63
2023/05/18 05:09:36;;;;;;;;;;;9.20;99.90;;;;;;5133929;27;19923;-64
2023/05/18 05:12:02;;;;;;;;;;;9.20;99.90;;;;;;5117538;27;19976;-64
2023/05/18 05:14:28;;;;;;;;;;;9.20;99.90;;;;;;5134348;27;19931;-63
2023/05/18 05:16:53;;;;;;;;;;;9.20;99.90;;;;;;5134543;27;19924;-63
2023/05/18 05:19:19;;;;;;;;;;;9.20;99.90;;;;;;5135641;27;20031;-65
2023/05/18 05:21:45;;;;;;;;;;;9.20;99.90;;;;;;5134061;27;20381;-66
2023/05/18 05:24:10;;;;;;;;;;;9.20;99.90;;;;;;5134143;27;19973;-66
2023/05/18 05:26:36;;;;;;;;;;;9.20;99.90;;;;;;5115427;27;19923;-64
2023/05/18 05:29:01;;;;;;;;;;;9.20;99.90;;;;;;5135210;27;20345;-66
2023/05/18 05:31:27;;;;;;;;;;;9.30;99.90;;;;;;5134039;27;19931;-66
2023/05/18 05:33:52;;;;;;;;;;;9.20;99.90;;;;;;5135536;27;19923;-62
2023/05/18 05:36:18;;;;;;;;;;;9.20;99.90;;;;;;5135557;27;20364;-65
2023/05/18 05:38:43;;;;;;;;;;;9.20;99.90;;;;;;5133639;27;20514;-64
2023/05/18 05:41:09;;;;;;;;;;;9.30;99.90;;;;;;5135487;27;19931;-63
2023/05/18 05:43:35;;;;;;;;;;;9.30;99.90;;;;;;5134920;27;19927;-64
2023/05/18 05:46:01;;;;;;;;;;;9.40;99.90;;;;;;5135052;27;19923;-63
2023/05/18 05:48:27;;;;;;;;;;;9.40;99.90;;;;;;5134665;27;19930;-70
2023/05/18 05:50:52;;;;;;;;;;;9.50;99.90;;;;;;5134967;27;19939;-63
2023/05/18 05:53:18;;;;;;;;;;;9.50;99.90;;;;;;5133954;27;19963;-62
2023/05/18 05:55:44;;;;;;;;;;;9.60;99.90;;;;;;5133426;27;19930;-63
2023/05/18 05:58:09;;;;;;;;;;;9.60;99.90;;;;;;5133410;27;19923;-63
2023/05/18 06:00:35;;;;;;;;;;;9.70;99.90;;;;;;5134437;27;19927;-63
2023/05/18 06:03:01;;;;;;;;;;;9.70;99.90;;;;;;5134472;27;19930;-64
2023/05/18 06:05:26;;;;;;;;;;;9.70;99.90;;;;;;5133941;27;19953;-63
2023/05/18 06:07:52;;;;;;;;;;;9.70;99.90;;;;;;5133109;27;19923;-63
2023/05/18 06:10:18;;;;;;;;;;;9.80;99.90;;;;;;5133911;27;20438;-64
2023/05/18 06:12:43;;;;;;;;;;;9.90;99.90;;;;;;5134310;27;19923;-63
2023/05/18 06:15:09;;;;;;;;;;;9.90;99.90;;;;;;5133658;27;19970;-63
2023/05/18 06:17:35;;;;;;;;;;;9.90;99.90;;;;;;5133189;27;19923;-64
2023/05/18 06:20:00;;;;;;;;;;;10.00;99.90;;;;;;5133516;27;19984;-64
2023/05/18 06:22:26;;;;;;;;;;;10.00;99.90;;;;;;5134334;27;19923;-65
2023/05/18 06:24:51;;;;;;;;;;;10.00;99.90;;;;;;5133944;27;19949;-63
2023/05/18 06:27:17;;;;;;;;;;;10.10;99.90;;;;;;5133016;27;19963;-64
2023/05/18 06:29:43;;;;;;;;;;;10.10;99.90;;;;;;5134146;27;19923;-63
2023/05/18 06:32:10;;;;;;;;;;;10.10;99.90;;;;;;5134342;27;20257;-64
2023/05/18 06:34:36;;;;;;;;;;;10.20;99.90;;;;;;5133470;27;19927;-63
2023/05/18 06:37:02;;;;;;;;;;;10.20;99.90;;;;;;5134107;27;19968;-64
2023/05/18 06:39:28;;;;;;;;;;;10.30;99.90;;;;;;5133174;27;20310;-64
2023/05/18 06:41:53;;;;;;;;;;;10.40;99.90;;;;;;5115717;27;19979;-63
2023/05/18 06:44:19;;;;;;;;;;;10.40;99.90;;;;;;5132780;27;19979;-64
2023/05/18 06:46:46;;;;;;;;;;;10.40;99.90;;;;;;5133556;27;19927;-63
2023/05/18 06:49:11;;;;;;;;;;;10.50;99.90;;;;;;5133987;27;19931;-64
2023/05/18 06:51:37;;;;;;;;;;;10.50;99.90;;;;;;5132688;27;20352;-63
2023/05/18 06:54:03;;;;;;;;;;;10.60;99.90;;;;;;5116067;27;19984;-64
2023/05/18 06:56:28;;;;;;;;;;;10.70;99.90;;;;;;5134097;27;20372;-63
2023/05/18 06:58:54;;;;;;;;;;;10.80;99.90;;;;;;5133192;27;19931;-64
2023/05/18 07:01:19;;;;;;;;;;;10.90;99.90;;;;;;5133875;27;20006;-66
2023/05/18 07:03:45;;;;;;;;;;;11.00;99.90;;;;;;5133185;27;20326;-65
2023/05/18 07:06:10;;;;;;;;;;;11.10;99.90;;;;;;5133408;27;20000;-64
2023/05/18 07:08:36;;;;;;;;;;;11.10;99.90;;;;;;5133532;27;19923;-71
2023/05/18 07:11:02;;;;;;;;;;;11.30;99.90;;;;;;5133234;27;20284;-64
2023/05/18 07:13:28;;;;;;;;;;;11.40;99.90;;;;;;5132735;27;19930;-63
2023/05/18 07:15:54;;;;;;;;;;;11.50;99.90;;;;;;5133072;27;19924;-64
2023/05/18 07:18:19;;;;;;;;;;;11.60;99.90;;;;;;5133498;27;19924;-63
2023/05/18 07:20:45;;;;;;;;;;;11.70;99.90;;;;;;5132769;27;19927;-63
2023/05/18 07:23:10;;;;;;;;;;;11.90;99.90;;;;;;5114295;27;20015;-62
2023/05/18 07:25:36;;;;;;;;;;;12.20;99.90;;;;;;5167065;27;19923;-63
2023/05/18 07:28:02;;;;;;;;;;;12.40;99.90;;;;;;5132698;27;20377;-63
2023/05/18 07:30:27;;;;;;;;;;;12.70;99.90;;;;;;5131782;27;19924;-63
2023/05/18 07:32:55;;;;;;;;;;;12.90;99.90;;;;;;5132955;27;20010;-64
2023/05/18 07:35:21;;;;;;;;;;;13.10;99.90;;;;;;5133236;27;19976;-63
2023/05/18 07:37:47;;;;;;;;;;;13.20;99.90;;;;;;5132952;27;19924;-65
2023/05/18 07:40:12;;;;;;;;;;;13.40;99.90;;;;;;5133025;27;20288;-65
2023/05/18 07:42:39;;;;;;;;;;;13.50;99.90;;;;;;5133114;27;19927;-65
2023/05/18 07:45:05;;;;;;;;;;;13.70;99.20;;;;;;5132735;27;19985;-65
2023/05/18 07:47:31;;;;;;;;;;;13.80;99.90;;;;;;5131401;27;20388;-63
2023/05/18 07:49:57;;;;;;;;;;;13.80;99.30;;;;;;5130727;27;19924;-63
2023/05/18 07:52:22;;;;;;;;;;;13.90;99.00;;;;;;5132053;28;19931;-63
2023/05/18 07:54:48;;;;;;;;;;;13.90;99.50;;;;;;5131647;28;19924;-63
2023/05/18 07:57:13;;;;;;;;;;;14.50;99.30;;;;;;5114638;28;19978;-63
2023/05/18 07:59:39;;;;;;;;;;;15.40;98.80;;;;;;5132949;28;19931;-63
2023/05/18 08:02:05;;;;;;;;;;;16.20;97.60;;;;;;5132534;27;19932;-64
2023/05/18 08:04:30;;;;;;;;;;;17.00;95.90;;;;;;5131861;28;19923;-63
2023/05/18 08:06:59;;;;;;;;;;;17.50;95.50;;;;;;5132767;28;19942;-63
2023/05/18 08:09:27;;;;;;;;;;;17.60;94.50;;;;;;5132475;27;19923;-63
2023/05/18 08:11:53;;;;;;;;;;;17.80;95.10;;;;;;5132463;27;19923;-64
2023/05/18 08:14:19;;;;;;;;;;;18.00;95.50;;;;;;5132879;27;19998;-65
2023/05/18 08:16:45;;;;;;;;;;;18.00;93.90;;;;;;5131495;28;20450;-68
2023/05/18 08:19:10;;;;;;;;;;;18.40;95.40;;;;;;5114443;28;19956;-63
2023/05/18 08:21:36;;;;;;;;;;;18.60;93.00;;;;;;5131714;28;20027;-63
2023/05/18 08:24:02;;;;;;;;;;;18.30;92.70;;;;;;5131116;28;19972;-64
2023/05/18 08:26:28;;;;;;;;;;;17.90;93.40;;;;;;5148682;27;20366;-63
2023/05/18 08:28:54;;;;;;;;;;;17.90;94.20;;;;;;5130340;28;19930;-65
2023/05/18 08:31:20;;;;;;;;;;;18.10;93.90;;;;;;5131527;28;19937;-63
2023/05/18 08:33:46;;;;;;;;;;;18.10;92.20;;;;;;5132655;27;20373;-64
2023/05/18 08:36:11;;;;;;;;;;;18.10;92.60;;;;;;5132380;27;20014;-64
2023/05/18 08:38:37;;;;;;;;;;;18.00;93.10;;;;;;5132620;27;19928;-62
2023/05/18 08:41:05;;;;;;;;;;;18.50;92.90;;;;;;5165513;27;20026;-63
2023/05/18 08:43:32;;;;;;;;;;;18.50;92.00;;;;;;5132585;27;19971;-63
2023/05/18 08:46:01;;;;;;;;;;;18.40;92.80;;;;;;5131789;27;19923;-66
2023/05/18 08:48:26;;;;;;;;;;;18.70;92.40;;;;;;5132894;27;19923;-64
2023/05/18 08:50:53;;;;;;;;;;;19.10;92.40;;;;;;5131186;28;19930;-65
2023/05/18 08:53:20;;;;;;;;;;;19.20;92.40;;;;;;5131794;28;19927;-65
2023/05/18 08:55:47;;;;;;;;;;;19.50;92.40;;;;;;5132247;27;19935;-64
2023/05/18 08:58:15;;;;;;;;;;;19.70;93.00;;;;;;5131059;28;19931;-64
2023/05/18 09:00:41;;;;;;;;;;;19.80;91.10;;;;;;5132562;27;19924;-64
2023/05/18 09:03:07;;;;;;;;;;;19.80;92.20;;;;;;5135155;27;19924;-64
2023/05/18 09:05:33;;;;;;;;;;;19.90;90.80;;;;;;5134903;27;19969;-65
2023/05/18 09:07:59;;;;;;;;;;;20.10;91.10;;;;;;5135939;27;19923;-65
2023/05/18 09:10:24;;;;;;;;;;;19.90;90.90;;;;;;5136149;27;19930;-64
2023/05/18 09:12:51;;;;;;;;;;;19.60;91.40;;;;;;5135761;27;20364;-64
2023/05/18 09:15:17;;;;;;;;;;;19.10;91.30;;;;;;5135472;27;19930;-64
2023/05/18 09:17:42;;;;;;;;;;;18.90;91.20;;;;;;5135923;27;19924;-63
2023/05/18 09:20:09;;;;;;;;;;;18.70;91.50;;;;;;5135178;27;20312;-64
2023/05/18 09:22:35;;;;;;;;;;;18.30;91.70;;;;;;5136056;27;19942;-64
2023/05/18 09:25:04;;;;;;;;;;;17.80;91.80;;;;;;5134439;27;19949;-63
2023/05/18 09:27:30;;;;;;;;;;;17.70;92.20;;;;;;5135000;27;19924;-63
2023/05/18 09:29:56;;;;;;;;;;;18.00;92.00;;;;;;5135513;27;19981;-65
2023/05/18 09:32:22;;;;;;;;;;;18.00;92.40;;;;;;5135809;27;20310;-63
2023/05/18 09:34:48;;;;;;;;;;;17.80;91.80;;;;;;5135910;27;19924;-64
2023/05/18 09:37:17;;;;;;;;;;;17.80;92.10;;;;;;5135404;27;19970;-62
2023/05/18 09:39:43;;;;;;;;;;;18.20;92.50;;;;;;5135708;27;20359;-62
2023/05/18 09:42:09;;;;;;;;;;;18.70;92.10;;;;;;5134939;27;19968;-63
2023/05/18 09:44:34;;;;;;;;;;;19.00;92.10;;;;;;5135646;27;19981;-64
2023/05/18 09:47:00;;;;;;;;;;;18.80;91.20;;;;;;5133696;27;19924;-64
2023/05/18 09:49:28;;;;;;;;;;;18.30;91.60;;;;;;5134278;27;19924;-62
2023/05/18 09:51:54;;;;;;;;;;;17.90;92.00;;;;;;5135309;27;20303;-62
2023/05/18 09:54:19;;;;;;;;;;;17.70;92.00;;;;;;5116780;27;19923;-63
2023/05/18 09:56:45;;;;;;;;;;;17.40;92.10;;;;;;5135166;27;20264;-64
2023/05/18 09:59:13;;;;;;;;;;;17.00;92.80;;;;;;5135027;27;20008;-65
2023/05/18 10:01:54;;;;;;;;;;;16.80;93.50;;;;;;5135140;27;19924;-65
2023/05/18 10:04:20;;;;;;;;;;;16.70;93.10;;;;;;5134825;27;19927;-64
2023/05/18 10:06:49;;;;;;;;;;;16.70;93.20;;;;;;5133891;27;20333;-63
2023/05/18 10:09:15;;;;;;;;;;;16.70;93.40;;;;;;5133582;27;19924;-64
2023/05/18 10:11:41;;;;;;;;;;;16.70;93.30;;;;;;5134956;27;19976;-64
2023/05/18 10:14:09;;;;;;;;;;;16.60;93.30;;;;;;5150508;27;20010;-65
2023/05/18 10:16:35;;;;;;;;;;;16.40;93.90;;;;;;5134876;27;19972;-65
2023/05/18 10:19:02;;;;;;;;;;;16.30;93.40;;;;;;5134237;27;19924;-65
2023/05/18 10:21:29;;;;;;;;;;;16.10;94.90;;;;;;5133534;27;20010;-64
2023/05/18 10:23:55;;;;;;;;;;;16.10;93.90;;;;;;5133714;27;20031;-64
2023/05/18 10:26:22;;;;;;;;;;;16.10;93.60;;;;;;5132607;27;20010;-64
2023/05/18 10:28:48;;;;;;;;;;;15.90;94.20;;;;;;5134346;27;20010;-64
2023/05/18 10:31:15;;;;;;;;;;;15.90;94.10;;;;;;5133947;27;19948;-66
2023/05/18 10:33:42;;;;;;;;;;;15.80;94.40;;;;;;5133252;27;20026;-64
2023/05/18 10:36:07;;;;;;;;;;;15.60;94.40;;;;;;5133845;27;19978;-66
2023/05/18 10:38:35;;;;;;;;;;;15.50;94.50;;;;;;5134282;27;20032;-64
2023/05/18 10:41:01;;;;;;;;;;;15.60;95.10;;;;;;5134184;27;19924;-63
2023/05/18 10:43:27;;;;;;;;;;;15.70;94.70;;;;;;5133991;27;19923;-64
2023/05/18 10:45:54;;;;;;;;;;;15.70;95.10;;;;;;5132945;27;20059;-63
2023/05/18 10:48:20;;;;;;;;;;;15.80;94.50;;;;;;5132639;27;20366;-64
2023/05/18 10:50:49;;;;;;;;;;;15.80;94.20;;;;;;5115734;27;19927;-64
2023/05/18 10:53:19;;;;;;;;;;;15.80;94.10;;;;;;5132625;27;19934;-64
2023/05/18 10:55:46;;;;;;;;;;;15.80;94.40;;;;;;5134063;27;19923;-64
2023/05/18 10:58:13;;;;;;;;;;;15.80;94.50;;;;;;5133353;27;20289;-64
2023/05/18 11:00:39;;;;;;;;;;;15.80;94.10;;;;;;5133699;27;19931;-64
2023/05/18 11:03:12;;;;;;;;;;;15.80;94.30;;;;;;5133856;27;19947;-64
2023/05/18 11:05:38;;;;;;;;;;;15.80;93.80;;;;;;5132867;27;20326;-64
2023/05/18 11:08:04;;;;;;;;;;;15.80;94.10;;;;;;5133562;27;20372;-64
2023/05/18 11:10:45;;;;;;;;;;;15.80;94.10;;;;;;5133403;27;19924;-63
2023/05/18 11:13:12;;;;;;;;;;;15.80;94.20;;;;;;5132012;27;19968;-64
2023/05/18 11:15:49;;;;;;;;;;;15.80;94.20;;;;;;5133715;27;20300;-64
2023/05/18 11:18:15;;;;;;;;;;;15.80;94.60;;;;;;5133066;27;19927;-64
2023/05/18 11:20:43;;;;;;;;;;;15.80;94.20;;;;;;5132302;27;19923;-64
2023/05/18 11:23:09;;;;;;;;;;;15.80;94.30;;;;;;5133290;27;19928;-68
2023/05/18 11:25:35;;;;;;;;;;;15.80;94.20;;;;;;5132635;27;19934;-64
2023/05/18 11:28:03;;;;;;;;;;;15.80;94.20;;;;;;5133011;27;19923;-64
2023/05/18 11:30:43;;;;;;;;;;;15.90;94.30;;;;;;5133056;27;19977;-66
2023/05/18 11:33:29;;;;;;;;;;;15.80;94.30;;;;;;5133490;27;19928;-65
2023/05/18 11:36:01;;;;;;;;;;;15.90;94.50;;;;;;5115705;27;19924;-65
2023/05/18 11:38:46;;;;;;;;;;;16.00;94.50;;;;;;5132725;27;20372;-63
2023/05/18 11:41:31;;;;;;;;;;;16.00;94.40;;;;;;5132791;27;19923;-67
2023/05/18 11:44:16;;;;;;;;;;;15.90;93.70;;;;;;5133133;27;19950;-63
2023/05/18 11:46:57;;;;;;;;;;;15.70;94.00;;;;;;5133296;27;19924;-63
2023/05/18 11:49:24;;;;;;;;;;;15.60;94.40;;;;;;5133101;27;20330;-63
2023/05/18 11:52:08;;;;;;;;;;;15.50;94.80;;;;;;5132289;28;19930;-63
2023/05/18 11:54:38;;;;;;;;;;;15.50;94.60;;;;;;5132835;28;19923;-63
2023/05/18 11:57:03;;;;;;;;;;;15.70;94.50;;;;;;5133298;27;19933;-62
2023/05/18 11:59:32;;;;;;;;;;;15.70;94.80;;;;;;5133034;28;20351;-62
2023/05/18 12:01:59;;;;;;;;;;;15.70;94.50;;;;;;5133251;27;19924;-62
2023/05/18 12:04:25;;;;;;;;;;;15.70;94.40;;;;;;5132839;27;19933;-63
2023/05/18 12:06:51;;;;;;;;;;;15.80;94.30;;;;;;5131928;28;19923;-63
2023/05/18 12:09:17;;;;;;;;;;;15.70;94.30;;;;;;5132765;27;19924;-62
2023/05/18 12:11:43;;;;;;;;;;;15.60;94.70;;;;;;5133160;27;20022;-62
2023/05/18 12:14:10;;;;;;;;;;;15.70;94.50;;;;;;5131936;28;20015;-61
2023/05/18 12:16:36;;;;;;;;;;;15.60;94.70;;;;;;5132875;27;20092;-62
2023/05/18 12:19:02;;;;;;;;;;;15.60;95.00;;;;;;5132987;27;19923;-62
2023/05/18 12:21:27;;;;;;;;;;;15.60;95.30;;;;;;5132833;27;19923;-62
2023/05/18 12:23:56;;;;;;;;;;;15.70;94.90;;;;;;5133358;28;20335;-62
2023/05/18 12:26:24;;;;;;;;;;;15.80;95.00;;;;;;5132364;27;20036;-62
2023/05/18 12:28:56;;;;;;;;;;;15.70;95.10;;;;;;5132565;27;19924;-63
2023/05/18 12:31:22;;;;;;;;;;;15.60;95.30;;;;;;5132483;27;20039;-61
2023/05/18 12:33:49;;;;;;;;;;;15.70;95.30;;;;;;5132947;28;19927;-61
2023/05/18 12:36:15;;;;;;;;;;;15.70;95.40;;;;;;5133884;27;19977;-62
2023/05/18 12:38:41;;;;;;;;;;;15.80;95.10;;;;;;5136686;27;19923;-63
2023/05/18 12:41:07;;;;;;;;;;;15.70;95.50;;;;;;5136019;27;19923;-61
2023/05/18 12:43:33;;;;;;;;;;;15.70;95.20;;;;;;5136185;27;19938;-62
2023/05/18 12:46:05;;;;;;;;;;;15.80;95.50;;;;;;5136675;27;19931;-62
2023/05/18 12:48:37;;;;;;;;;;;15.90;95.50;;;;;;5135249;27;19952;-63
2023/05/18 12:51:02;;;;;;;;;;;15.80;95.80;;;;;;5136473;27;19923;-62
2023/05/18 12:53:41;;;;;;;;;;;15.70;95.60;;;;;;5136316;27;19927;-62
2023/05/18 12:56:10;;;;;;;;;;;15.70;95.80;;;;;;5136152;27;20408;-62
2023/05/18 12:58:36;;;;;;;;;;;15.70;95.90;;;;;;5136491;27;19927;-62
2023/05/18 13:01:11;;;;;;;;;;;15.60;96.00;;;;;;5136110;27;20379;-62
2023/05/18 13:03:40;;;;;;;;;;;15.70;96.50;;;;;;5136303;27;19923;-63
2023/05/18 13:06:06;;;;;;;;;;;15.90;96.20;;;;;;5170088;27;20335;-62
2023/05/18 13:08:32;;;;;;;;;;;16.00;95.90;;;;;;5135966;27;19976;-62
2023/05/18 13:11:01;;;;;;;;;;;15.90;95.80;;;;;;5136202;27;19924;-63
2023/05/18 13:13:27;;;;;;;;;;;15.90;95.80;;;;;;5134720;27;19946;-62
2023/05/18 13:15:53;;;;;;;;;;;15.90;96.20;;;;;;5135207;27;19923;-62
2023/05/18 13:18:18;;;;;;;;;;;16.00;96.10;;;;;;5136175;27;20288;-62
2023/05/18 13:20:48;;;;;;;;;;;16.00;95.50;;;;;;5135639;27;20010;-63
2023/05/18 13:23:15;;;;;;;;;;;15.90;95.60;;;;;;5135991;27;19932;-62
2023/05/18 13:25:41;;;;;;;;;;;15.80;95.90;;;;;;5135673;27;19923;-62
2023/05/18 13:28:09;;;;;;;;;;;15.80;95.50;;;;;;5135600;27;19924;-62
2023/05/18 13:30:35;;;;;;;;;;;15.70;95.70;;;;;;5135774;27;20023;-62
2023/05/18 13:33:01;;;;;;;;;;;15.70;96.00;;;;;;5135527;27;19923;-62
2023/05/18 13:35:27;;;;;;;;;;;15.70;96.00;;;;;;5134086;27;20349;-65
2023/05/18 13:37:52;;;;;;;;;;;15.60;95.70;;;;;;5134677;27;20010;-62
2023/05/18 13:40:19;;;;;;;;;;;15.50;95.90;;;;;;5134517;27;20338;-61
2023/05/18 13:42:45;;;;;;;;;;;15.50;96.20;;;;;;5133276;27;19923;-61
2023/05/18 13:45:11;;;;;;;;;;;15.50;96.50;;;;;;5134485;27;20027;-61
2023/05/18 13:47:37;;;;;;;;;;;15.50;96.40;;;;;;5133785;27;20003;-62
2023/05/18 13:50:04;;;;;;;;;;;15.60;96.40;;;;;;5135674;27;20291;-62
2023/05/18 13:52:30;;;;;;;;;;;15.60;97.10;;;;;;5168389;27;19923;-61
2023/05/18 13:54:55;;;;;;;;;;;15.70;97.20;;;;;;5135599;27;19988;-62
2023/05/18 13:57:22;;;;;;;;;;;15.80;96.70;;;;;;5134050;27;19946;-62
2023/05/18 13:59:48;;;;;;;;;;;15.80;96.70;;;;;;5132481;27;19923;-62
2023/05/18 14:02:14;;;;;;;;;;;15.80;96.90;;;;;;5135017;27;20376;-62
2023/05/18 14:04:39;;;;;;;;;;;15.80;96.70;;;;;;5133951;27;19931;-62
2023/05/18 14:07:05;;;;;;;;;;;15.80;97.00;;;;;;5133725;27;20296;-62
2023/05/18 14:09:31;;;;;;;;;;;15.80;97.10;;;;;;5133618;27;20384;-64
2023/05/18 14:11:58;;;;;;;;;;;15.80;97.30;;;;;;5134373;27;20072;-62
2023/05/18 14:14:24;;;;;;;;;;;15.80;97.10;;;;;;5117113;27;20006;-62
2023/05/18 14:16:50;;;;;;;;;;;15.70;97.60;;;;;;5134731;27;20014;-62
2023/05/18 14:19:15;;;;;;;;;;;15.80;97.50;;;;;;5134709;27;19934;-63
2023/05/18 14:21:41;;;;;;;;;;;15.70;97.80;;;;;;5134401;27;19924;-62